createdAt,value
2022-07-29T00:00:17.077Z,58.31
2022-07-29T00:06:19.144Z,60.84
2022-07-29T00:12:25.382Z,60.40
2022-07-29T00:18:28.685Z,61.94
2022-07-29T00:24:32.338Z,61.70
2022-07-29T00:30:34.334Z,61.83
2022-07-29T00:36:36.297Z,62.29
2022-07-29T00:42:50.445Z,62.53
2022-07-29T00:48:52.425Z,62.95
2022-07-29T00:54:54.527Z,63.44
2022-07-29T01:00:56.581Z,64.48
2022-07-29T01:06:58.920Z,64.11
2022-07-29T01:13:03.238Z,64.94
2022-07-29T01:19:41.370Z,65.35
2022-07-29T01:26:23.167Z,65.80
2022-07-29T01:32:33.960Z,66.12
2022-07-29T01:38:39.173Z,66.22
2022-07-29T01:44:57.131Z,65.88
2022-07-29T01:51:27.315Z,67.00
2022-07-29T01:57:34.619Z,67.18
2022-07-29T02:03:39.273Z,67.78
2022-07-29T02:09:43.110Z,67.95
2022-07-29T02:15:47.375Z,67.46
2022-07-29T02:21:52.378Z,66.27
2022-07-29T02:27:56.176Z,67.26
2022-07-29T02:34:00.132Z,66.95
2022-07-29T02:40:02.825Z,68.10
2022-07-29T02:46:28.014Z,68.53
2022-07-29T02:52:50.080Z,69.02
2022-07-29T02:58:58.668Z,69.22
2022-07-29T03:05:02.837Z,68.71
2022-07-29T03:11:05.765Z,68.57
2022-07-29T03:17:08.409Z,68.97
2022-07-29T03:23:10.714Z,69.26
2022-07-29T03:29:13.515Z,69.01
2022-07-29T03:35:17.548Z,69.26
2022-07-29T03:41:22.316Z,69.71
2022-07-29T03:47:50.348Z,70.26
2022-07-29T03:53:51.062Z,70.41
2022-07-29T03:59:54.199Z,71.01
2022-07-29T04:06:00.998Z,70.31
2022-07-29T04:12:04.293Z,69.67
2022-07-29T04:18:06.995Z,70.44
2022-07-29T04:24:09.317Z,70.43
2022-07-29T04:30:11.595Z,68.63
2022-07-29T04:36:28.674Z,69.24
2022-07-29T04:42:31.608Z,69.89
2022-07-29T04:48:34.502Z,69.07
2022-07-29T04:54:36.470Z,71.14
2022-07-29T05:00:38.619Z,71.15
2022-07-29T05:06:40.574Z,71.69
2022-07-29T05:12:42.532Z,71.35
2022-07-29T05:18:44.540Z,70.04
2022-07-29T05:24:46.593Z,69.83
2022-07-29T05:30:49.378Z,68.28
2022-07-29T05:36:51.980Z,68.02
2022-07-29T05:42:53.969Z,67.55
2022-07-29T05:48:56.045Z,62.61
2022-07-29T05:54:58.453Z,61.02
2022-07-29T06:01:01.534Z,58.47
2022-07-29T06:07:03.658Z,54.95
2022-07-29T06:13:05.913Z,51.49
2022-07-29T06:19:08.034Z,50.48
2022-07-29T06:25:11.583Z,50.68
2022-07-29T06:31:13.651Z,50.85
2022-07-29T06:37:15.952Z,48.97
2022-07-29T06:43:17.989Z,48.98
2022-07-29T06:49:20.164Z,49.01
2022-07-29T06:55:25.071Z,48.69
2022-07-29T07:01:27.582Z,48.36
2022-07-29T07:07:29.647Z,47.94
2022-07-29T07:13:35.389Z,48.25
2022-07-29T07:19:38.862Z,48.13
2022-07-29T07:25:40.946Z,49.31
2022-07-29T07:31:43.068Z,49.18
2022-07-29T07:37:45.182Z,47.41
2022-07-29T07:43:47.197Z,45.16
2022-07-29T07:49:49.787Z,45.04
2022-07-29T08:02:13.829Z,41.89
2022-07-29T08:08:15.890Z,42.24
2022-07-29T08:14:18.289Z,39.35
2022-07-29T08:20:20.592Z,41.08
2022-07-29T08:26:23.644Z,39.59
2022-07-29T08:32:43.779Z,39.20
2022-07-29T08:38:47.742Z,39.21
2022-07-29T08:44:51.624Z,38.18
2022-07-29T08:50:57.965Z,38.84
2022-07-29T08:57:01.716Z,39.18
2022-07-29T09:03:06.417Z,40.54
2022-07-29T09:09:09.568Z,39.66
2022-07-29T09:15:11.626Z,40.49
2022-07-29T09:21:36.056Z,40.92
2022-07-29T09:27:38.132Z,40.40
2022-07-29T09:33:41.470Z,39.27
2022-07-29T09:39:47.243Z,40.25
2022-07-29T09:45:49.533Z,41.32
2022-07-29T09:52:07.421Z,41.98
2022-07-29T09:58:23.698Z,42.83
2022-07-29T10:04:37.988Z,43.22
2022-07-29T10:10:43.523Z,42.79
2022-07-29T10:16:45.748Z,45.63
2022-07-29T10:22:53.513Z,46.38
2022-07-29T10:28:57.035Z,47.73
2022-07-29T10:35:08.641Z,47.95
2022-07-29T10:41:31.996Z,48.06
2022-07-29T10:47:38.517Z,47.23
2022-07-29T10:53:54.091Z,48.08
2022-07-29T11:00:11.649Z,47.04
2022-07-29T11:06:14.401Z,46.29
2022-07-29T11:12:38.853Z,45.58
2022-07-29T11:19:26.298Z,46.58
2022-07-29T11:25:42.799Z,45.21
2022-07-29T11:31:58.252Z,44.88
2022-07-29T11:38:28.570Z,44.09
2022-07-29T11:51:48.517Z,41.00
2022-07-29T11:58:03.753Z,39.08
2022-07-29T12:04:07.817Z,38.19
2022-07-29T12:10:11.351Z,37.59
2022-07-29T12:16:14.699Z,36.44
2022-07-29T12:22:45.238Z,36.80
2022-07-29T12:28:48.242Z,36.05
2022-07-29T12:34:51.880Z,34.09
2022-07-29T12:40:56.273Z,33.54
2022-07-29T12:47:05.247Z,32.38
2022-07-29T12:53:14.690Z,29.44
2022-07-29T12:59:22.827Z,26.19
2022-07-29T13:05:25.476Z,25.14
2022-07-29T13:11:50.346Z,25.58
2022-07-29T13:17:52.425Z,24.87
2022-07-29T13:23:54.407Z,22.86
2022-07-29T13:29:59.278Z,21.61
2022-07-29T13:36:01.506Z,23.27
2022-07-29T13:42:05.894Z,23.96
2022-07-29T13:48:12.200Z,25.66
2022-07-29T13:54:14.207Z,27.74
2022-07-29T14:00:17.146Z,27.68
2022-07-29T14:06:19.123Z,29.89
2022-07-29T14:12:24.431Z,30.55
2022-07-29T14:18:26.412Z,31.10
2022-07-29T14:24:28.405Z,30.90
2022-07-29T14:30:31.273Z,30.32
2022-07-29T14:36:33.265Z,31.07
2022-07-29T14:42:35.580Z,30.25
2022-07-29T14:48:37.631Z,30.65
2022-07-29T14:54:39.622Z,31.63
2022-07-29T15:00:42.277Z,32.53
2022-07-29T15:06:44.833Z,32.25
2022-07-29T15:12:46.837Z,31.82
2022-07-29T15:18:48.826Z,32.49
2022-07-29T15:24:50.855Z,32.94
2022-07-29T15:30:53.884Z,32.24
2022-07-29T15:36:55.847Z,32.00
2022-07-29T15:43:01.623Z,30.34
2022-07-29T15:49:05.426Z,27.56
2022-07-29T15:55:08.050Z,25.77
2022-07-29T16:01:10.369Z,25.15
2022-07-29T16:07:12.522Z,24.39
2022-07-29T16:13:18.741Z,22.76
2022-07-29T16:19:20.996Z,23.63
2022-07-29T16:25:38.395Z,25.62
2022-07-29T16:31:45.495Z,28.14
2022-07-29T16:37:47.559Z,28.88
2022-07-29T16:43:49.677Z,29.91
2022-07-29T16:49:52.018Z,30.46
2022-07-29T16:55:54.619Z,30.60
2022-07-29T17:01:56.813Z,30.75
2022-07-29T17:07:58.954Z,32.20
2022-07-29T17:14:01.708Z,32.57
2022-07-29T17:20:05.338Z,33.43
2022-07-29T17:26:07.294Z,33.83
2022-07-29T17:32:10.770Z,33.92
2022-07-29T17:38:12.874Z,34.06
2022-07-29T17:44:15.269Z,34.21
2022-07-29T17:50:17.258Z,34.69
2022-07-29T17:56:19.782Z,35.29
2022-07-29T18:02:21.871Z,36.27
2022-07-29T18:08:27.074Z,36.37
2022-07-29T18:14:29.054Z,37.30
2022-07-29T18:20:32.562Z,37.14
2022-07-29T18:26:34.575Z,37.97
2022-07-29T18:32:36.800Z,38.45
2022-07-29T18:38:42.223Z,38.72
2022-07-29T18:44:49.183Z,39.53
2022-07-29T18:50:51.624Z,39.82
2022-07-29T18:56:53.670Z,40.30
2022-07-29T19:02:55.812Z,41.03
2022-07-29T19:08:57.915Z,42.15
2022-07-29T19:14:59.899Z,43.11
2022-07-29T19:21:01.884Z,43.81
2022-07-29T19:27:03.998Z,44.98
2022-07-29T19:33:06.087Z,45.58
2022-07-29T19:39:08.091Z,45.50
2022-07-29T19:45:11.194Z,46.50
2022-07-29T19:51:13.182Z,46.63
2022-07-29T19:57:16.038Z,47.66
2022-07-29T20:03:18.251Z,48.18
2022-07-29T20:09:20.537Z,47.36
2022-07-29T20:15:23.307Z,45.29
2022-07-29T20:21:26.795Z,46.52
2022-07-29T20:27:29.426Z,47.24
2022-07-29T20:33:31.404Z,47.38
2022-07-29T20:39:33.363Z,48.29
2022-07-29T20:45:37.157Z,47.98
2022-07-29T20:51:43.997Z,48.40
2022-07-29T20:57:46.182Z,50.52
2022-07-29T21:03:48.247Z,52.53
2022-07-29T21:09:51.005Z,53.30
2022-07-29T21:15:58.084Z,54.37
2022-07-29T21:22:00.529Z,55.92
2022-07-29T21:28:21.374Z,57.87
2022-07-29T21:34:24.550Z,59.41
2022-07-29T21:40:26.564Z,61.83
2022-07-29T21:46:28.688Z,62.64
2022-07-29T21:52:30.805Z,64.04
2022-07-29T21:58:33.594Z,64.50
2022-07-29T22:04:35.843Z,65.63
2022-07-29T22:10:38.135Z,67.37
2022-07-29T22:16:40.164Z,69.88
2022-07-29T22:22:42.370Z,70.82
2022-07-29T22:28:44.326Z,72.21
2022-07-29T22:34:46.736Z,73.24
2022-07-29T22:40:50.585Z,74.13
2022-07-29T22:46:52.906Z,73.91
2022-07-29T22:52:54.919Z,74.23
2022-07-29T22:58:57.027Z,74.17
2022-07-29T23:04:58.998Z,74.39
2022-07-29T23:11:01.011Z,74.50
2022-07-29T23:17:03.501Z,74.27
2022-07-29T23:23:06.164Z,75.26
2022-07-29T23:29:08.205Z,75.34
2022-07-29T23:35:10.408Z,75.81
2022-07-29T23:41:13.387Z,75.70
2022-07-29T23:47:15.340Z,75.84
2022-07-29T23:53:17.621Z,76.81
2022-07-29T23:59:19.734Z,76.89
